Time;durP1;ratioP1;P1;durP2;ratioP2;P2;SDS_P1;SDS_P2;PMS_P1;PMS_P2;Temp;Humidity;BMP_temperature;BMP_pressure;BME280_temperature;BME280_humidity;BME280_pressure;Samples;Min_cycle;Max_cycle;Signal;HPM_P1;HPM_P2
2023/06/28 00:01:04;;;;;;;5.07;3.28;;;10.70;99.90;;;;;;5030143;28;20095;-80
2023/06/28 00:03:30;;;;;;;5.65;3.63;;;10.60;99.90;;;;;;5030068;28;20033;-81
2023/06/28 00:05:56;;;;;;;5.90;3.72;;;10.60;99.90;;;;;;5029984;28;20030;-79
2023/06/28 00:08:22;;;;;;;6.40;4.53;;;10.60;99.90;;;;;;5030021;28;20041;-79
2023/06/28 00:10:49;;;;;;;8.05;4.82;;;10.60;99.90;;;;;;5031377;28;20501;-80
2023/06/28 00:13:15;;;;;;;9.63;4.60;;;10.60;99.90;;;;;;5029899;28;20029;-81
2023/06/28 00:15:40;;;;;;;7.82;4.65;;;10.60;99.90;;;;;;5031215;28;20128;-81
2023/06/28 00:18:07;;;;;;;8.07;4.65;;;10.60;99.90;;;;;;5031115;28;20430;-79
2023/06/28 00:20:34;;;;;;;5.78;4.40;;;10.50;99.90;;;;;;5029830;28;20074;-81
2023/06/28 00:23:00;;;;;;;7.72;4.07;;;10.50;99.90;;;;;;5029769;28;20444;-79
2023/06/28 00:25:25;;;;;;;7.03;4.32;;;10.50;99.90;;;;;;5031054;28;20074;-78
2023/06/28 00:27:51;;;;;;;8.88;4.22;;;10.40;99.90;;;;;;5029644;28;20029;-79
2023/06/28 00:30:17;;;;;;;6.95;4.53;;;10.40;99.90;;;;;;5030076;28;20022;-81
2023/06/28 00:32:42;;;;;;;3.47;3.00;;;10.40;99.90;;;;;;5029704;28;20022;-81
2023/06/28 00:35:08;;;;;;;5.97;3.15;;;10.30;99.90;;;;;;5030916;28;20032;-81
2023/06/28 00:37:34;;;;;;;4.68;3.55;;;10.30;99.90;;;;;;5029634;28;20025;-79
2023/06/28 00:40:00;;;;;;;3.58;3.20;;;10.20;99.90;;;;;;5030549;28;20025;-78
2023/06/28 00:42:26;;;;;;;3.55;2.78;;;10.20;99.90;;;;;;5029571;28;20025;-81
2023/06/28 00:44:51;;;;;;;5.13;3.47;;;10.10;99.90;;;;;;5030800;28;20103;-79
2023/06/28 00:47:18;;;;;;;4.95;3.53;;;10.10;99.90;;;;;;5030838;28;20025;-81
2023/06/28 00:49:45;;;;;;;8.02;4.30;;;10.10;99.90;;;;;;5029494;28;20112;-80
2023/06/28 00:52:12;;;;;;;7.32;4.55;;;10.00;99.90;;;;;;5030722;28;20022;-79
2023/06/28 00:54:39;;;;;;;9.38;5.00;;;10.00;99.90;;;;;;5029535;28;20444;-79
2023/06/28 00:57:05;;;;;;;18.95;8.38;;;10.00;99.90;;;;;;5030552;28;20061;-81
2023/06/28 00:59:31;;;;;;;15.48;6.72;;;10.00;99.90;;;;;;5029375;28;20025;-81
2023/06/28 01:01:57;;;;;;;22.90;9.63;;;9.90;99.90;;;;;;5029127;28;20021;-79
2023/06/28 01:04:22;;;;;;;11.30;5.72;;;9.80;99.90;;;;;;5030535;28;20108;-79
2023/06/28 01:06:54;;;;;;;13.85;6.53;;;9.80;99.90;;;;;;5029282;28;20026;-81
2023/06/28 01:09:20;;;;;;;3.95;3.50;;;9.70;99.90;;;;;;5029459;28;20387;-81
2023/06/28 01:11:50;;;;;;;5.00;3.45;;;9.70;99.90;;;;;;5030450;28;20029;-79
2023/06/28 01:14:17;;;;;;;4.18;3.78;;;9.60;99.90;;;;;;5030083;28;20104;-81
2023/06/28 01:16:44;;;;;;;5.45;3.72;;;9.60;99.90;;;;;;5029162;28;20033;-79
2023/06/28 01:19:15;;;;;;;5.28;3.92;;;9.50;99.90;;;;;;5029203;28;20513;-79
2023/06/28 01:21:45;;;;;;;5.20;3.72;;;9.50;99.90;;;;;;5030447;28;20062;-81
2023/06/28 01:24:12;;;;;;;4.53;3.72;;;9.40;99.90;;;;;;5028911;28;20490;-79
2023/06/28 01:26:39;;;;;;;6.28;3.75;;;9.40;99.90;;;;;;5030273;28;20415;-78
2023/06/28 01:29:06;;;;;;;6.32;4.30;;;9.40;99.90;;;;;;5030254;28;20522;-79
2023/06/28 01:31:32;;;;;;;3.67;3.00;;;9.40;99.90;;;;;;5030305;28;20033;-79
2023/06/28 01:33:58;;;;;;;5.13;3.22;;;9.30;99.90;;;;;;5029016;28;20123;-81
2023/06/28 01:36:23;;;;;;;6.28;3.75;;;9.20;99.90;;;;;;5028788;28;20026;-79
2023/06/28 01:38:50;;;;;;;3.92;3.53;;;9.20;99.90;;;;;;5030148;28;20105;-81
2023/06/28 01:41:16;;;;;;;4.25;3.50;;;9.30;99.90;;;;;;5028712;28;20108;-81
2023/06/28 01:43:42;;;;;;;5.63;3.63;;;9.20;99.90;;;;;;5032252;28;20116;-79
2023/06/28 01:46:08;;;;;;;5.15;3.45;;;9.20;99.90;;;;;;5032626;28;20132;-79
2023/06/28 01:48:34;;;;;;;4.50;3.80;;;9.20;99.90;;;;;;5032193;28;20056;-81
2023/06/28 01:51:00;;;;;;;4.18;3.78;;;9.20;99.90;;;;;;5033411;28;20064;-79
2023/06/28 01:53:26;;;;;;;4.63;3.60;;;9.20;99.90;;;;;;5033363;28;20021;-79
2023/06/28 01:55:51;;;;;;;4.40;3.08;;;9.10;99.90;;;;;;5032196;28;20044;-81
2023/06/28 01:58:17;;;;;;;4.00;3.60;;;9.10;99.90;;;;;;5033402;28;20025;-80
2023/06/28 02:00:43;;;;;;;4.10;3.72;;;9.10;99.90;;;;;;5032126;28;20109;-79
2023/06/28 02:03:08;;;;;;;4.70;3.40;;;9.00;99.90;;;;;;5032054;28;20034;-79
2023/06/28 02:05:34;;;;;;;8.13;3.88;;;9.00;99.90;;;;;;5033079;28;20104;-81
2023/06/28 02:08:01;;;;;;;4.65;4.15;;;8.90;99.90;;;;;;5031859;28;20021;-79
2023/06/28 02:10:26;;;;;;;4.70;4.30;;;9.00;99.90;;;;;;5032053;28;20543;-81
2023/06/28 02:12:52;;;;;;;5.93;3.40;;;9.00;99.90;;;;;;5031768;28;20053;-79
2023/06/28 02:15:18;;;;;;;3.97;3.58;;;8.90;99.90;;;;;;5031788;28;20497;-78
2023/06/28 02:17:43;;;;;;;4.53;3.80;;;8.90;99.90;;;;;;5033083;28;20026;-81
2023/06/28 02:20:12;;;;;;;13.88;4.50;;;8.90;99.90;;;;;;5031771;28;20030;-81
2023/06/28 02:22:38;;;;;;;10.60;5.40;;;8.70;99.90;;;;;;5031642;28;20030;-81
2023/06/28 02:25:04;;;;;;;6.45;4.03;;;8.60;99.90;;;;;;5032900;28;20463;-81
2023/06/28 02:27:29;;;;;;;9.05;4.55;;;8.50;99.90;;;;;;5032961;28;20022;-83
2023/06/28 02:29:56;;;;;;;8.90;4.40;;;8.40;99.90;;;;;;5031492;28;20024;-78
2023/06/28 02:32:22;;;;;;;9.50;5.15;;;8.40;99.90;;;;;;5032904;28;20062;-78
2023/06/28 02:34:48;;;;;;;8.32;4.95;;;8.40;99.90;;;;;;5032780;28;20032;-78
2023/06/28 02:37:14;;;;;;;16.38;8.40;;;8.30;99.90;;;;;;5032613;28;20490;-80
2023/06/28 02:39:39;;;;;;;26.55;11.18;;;8.30;99.90;;;;;;5031498;28;20516;-78
2023/06/28 02:42:05;;;;;;;25.77;11.55;;;8.30;99.90;;;;;;5032651;28;20061;-81
2023/06/28 02:44:31;;;;;;;13.98;7.10;;;8.30;99.90;;;;;;5031459;28;20029;-81
2023/06/28 02:46:56;;;;;;;8.15;5.38;;;8.30;99.90;;;;;;5032534;28;20025;-81
2023/06/28 02:49:23;;;;;;;12.98;5.95;;;8.30;99.90;;;;;;5031219;28;20536;-81
2023/06/28 02:51:48;;;;;;;8.80;5.00;;;8.30;99.90;;;;;;5031261;28;20600;-81
2023/06/28 02:54:14;;;;;;;11.32;6.05;;;8.30;99.90;;;;;;5031495;28;20022;-81
2023/06/28 02:56:40;;;;;;;9.02;5.30;;;8.30;99.90;;;;;;5031205;28;20360;-82
2023/06/28 02:59:05;;;;;;;11.02;5.70;;;8.30;99.90;;;;;;5031163;28;20071;-81
2023/06/28 03:01:31;;;;;;;13.90;7.05;;;8.20;99.90;;;;;;5031101;28;20026;-78
2023/06/28 03:03:56;;;;;;;13.90;6.38;;;8.20;99.90;;;;;;5030886;28;20037;-81
2023/06/28 03:06:22;;;;;;;7.45;4.85;;;8.30;99.90;;;;;;5032186;28;20044;-81
2023/06/28 03:08:47;;;;;;;14.85;5.53;;;8.30;99.90;;;;;;5030942;28;20021;-79
2023/06/28 03:11:13;;;;;;;6.10;5.20;;;8.40;99.90;;;;;;5032164;28;20539;-78
2023/06/28 03:13:38;;;;;;;10.77;4.85;;;8.40;99.90;;;;;;5032212;28;20021;-81
2023/06/28 03:16:04;;;;;;;9.18;5.25;;;8.50;99.90;;;;;;5030757;28;20066;-81
2023/06/28 03:18:30;;;;;;;7.00;5.15;;;8.50;99.90;;;;;;5030865;28;20022;-81
2023/06/28 03:20:56;;;;;;;6.70;4.57;;;8.60;99.90;;;;;;5030675;28;20116;-81
2023/06/28 03:23:21;;;;;;;6.68;4.85;;;8.60;99.90;;;;;;5030660;28;20029;-78
2023/06/28 03:25:47;;;;;;;23.48;11.05;;;8.60;99.90;;;;;;5030685;28;20036;-83
2023/06/28 03:28:12;;;;;;;16.77;9.48;;;8.70;99.90;;;;;;5030685;28;20560;-80
2023/06/28 03:30:38;;;;;;;18.98;11.10;;;8.80;99.90;;;;;;5030609;28;20017;-81
2023/06/28 03:33:04;;;;;;;60.20;26.25;;;9.00;99.90;;;;;;5030681;28;20057;-78
2023/06/28 03:35:29;;;;;;;36.25;16.65;;;9.10;99.90;;;;;;5030423;28;20024;-81
2023/06/28 03:37:55;;;;;;;27.08;12.30;;;9.20;99.90;;;;;;5030484;28;20028;-78
2023/06/28 03:40:22;;;;;;;17.85;10.23;;;9.40;99.90;;;;;;5030241;28;20547;-81
2023/06/28 03:42:48;;;;;;;13.50;7.47;;;9.60;99.90;;;;;;5030526;28;20035;-82
2023/06/28 03:45:16;;;;;;;18.02;9.45;;;9.80;99.90;;;;;;5031800;28;20108;-82
2023/06/28 03:47:42;;;;;;;24.17;12.48;;;10.00;99.90;;;;;;5031745;28;20031;-78
2023/06/28 03:50:08;;;;;;;16.48;8.77;;;10.40;99.90;;;;;;5030402;28;20021;-82
2023/06/28 03:52:35;;;;;;;13.80;9.23;;;10.60;99.90;;;;;;5031692;28;20029;-79
2023/06/28 03:55:01;;;;;;;13.07;8.70;;;10.80;99.90;;;;;;5030322;28;20032;-82
2023/06/28 03:57:27;;;;;;;16.92;8.93;;;11.10;99.90;;;;;;5031403;28;20026;-79
2023/06/28 03:59:52;;;;;;;15.50;9.30;;;11.40;99.90;;;;;;5031417;28;20171;-82
2023/06/28 04:02:19;;;;;;;13.55;8.35;;;11.70;99.90;;;;;;5030061;28;20095;-79
2023/06/28 04:04:45;;;;;;;14.05;8.05;;;11.80;99.90;;;;;;5031378;28;20018;-83
2023/06/28 04:07:11;;;;;;;13.55;7.47;;;12.00;99.90;;;;;;5030203;28;20022;-83
2023/06/28 04:09:37;;;;;;;8.88;6.00;;;12.20;99.90;;;;;;5031233;28;20030;-83
2023/06/28 04:12:03;;;;;;;9.35;5.82;;;12.30;99.90;;;;;;5029909;28;20040;-83
2023/06/28 04:14:29;;;;;;;9.50;5.90;;;12.40;99.90;;;;;;5030001;28;20026;-82
2023/06/28 04:16:54;;;;;;;8.20;5.57;;;12.60;99.90;;;;;;5029895;28;20121;-79
2023/06/28 04:19:20;;;;;;;11.27;6.00;;;12.60;99.90;;;;;;5031313;28;20387;-83
2023/06/28 04:21:46;;;;;;;9.27;5.78;;;12.80;99.90;;;;;;5029759;28;20021;-82
2023/06/28 04:24:11;;;;;;;6.43;5.25;;;13.00;99.90;;;;;;5031027;28;20082;-82
2023/06/28 04:26:37;;;;;;;7.28;5.47;;;12.90;99.90;;;;;;5029761;28;20022;-79
2023/06/28 04:29:02;;;;;;;7.32;5.20;;;12.90;99.90;;;;;;5030048;28;20037;-79
2023/06/28 04:31:28;;;;;;;6.93;6.22;;;13.00;99.90;;;;;;5030951;28;20025;-82
2023/06/28 04:33:57;;;;;;;7.25;5.75;;;13.00;99.90;;;;;;5029716;28;20064;-79
2023/06/28 04:36:26;;;;;;;11.70;5.85;;;13.00;99.90;;;;;;5030933;28;20387;-82
2023/06/28 04:38:52;;;;;;;8.85;6.93;;;13.10;99.90;;;;;;5029623;28;20117;-79
2023/06/28 04:41:28;;;;;;;11.82;6.05;;;13.00;99.90;;;;;;5030121;28;20045;-80
2023/06/28 04:43:55;;;;;;;8.40;6.35;;;13.00;99.90;;;;;;5029622;28;20402;-82
2023/06/28 04:46:29;;;;;;;11.48;6.50;;;13.00;99.90;;;;;;5029864;28;20073;-79
2023/06/28 04:48:56;;;;;;;9.40;6.40;;;13.00;99.90;;;;;;5030789;28;20526;-80
2023/06/28 04:51:22;;;;;;;8.10;6.28;;;13.00;99.90;;;;;;5029668;28;20029;-83
2023/06/28 04:53:49;;;;;;;8.13;5.90;;;13.20;99.90;;;;;;5029529;28;20021;-80
2023/06/28 04:56:15;;;;;;;6.70;5.28;;;13.20;99.90;;;;;;5030717;28;20040;-80
2023/06/28 04:58:41;;;;;;;6.10;5.50;;;13.30;99.90;;;;;;5030778;28;20520;-83
2023/06/28 05:01:07;;;;;;;12.27;5.80;;;13.60;99.90;;;;;;5029292;28;20529;-80
2023/06/28 05:03:34;;;;;;;8.27;4.55;;;13.70;99.90;;;;;;5030412;28;20054;-80
2023/06/28 05:06:07;;;;;;;7.93;4.85;;;13.80;99.90;;;;;;5029447;28;20025;-83
2023/06/28 05:08:33;;;;;;;7.00;4.72;;;14.00;99.90;;;;;;5029375;28;20037;-82
2023/06/28 05:10:59;;;;;;;6.55;3.78;;;14.20;99.90;;;;;;5029031;28;20428;-82
2023/06/28 05:13:25;;;;;;;4.68;3.90;;;14.10;99.90;;;;;;5030503;28;20022;-80
2023/06/28 05:15:51;;;;;;;5.78;4.03;;;14.10;99.90;;;;;;5029080;28;20527;-82
2023/06/28 05:18:20;;;;;;;7.50;3.83;;;14.00;99.90;;;;;;5032100;28;20025;-82
2023/06/28 05:20:46;;;;;;;5.32;3.80;;;13.80;99.90;;;;;;5034042;28;20029;-82
2023/06/28 05:23:12;;;;;;;5.43;3.63;;;13.80;99.90;;;;;;5033975;28;20045;-82
2023/06/28 05:25:41;;;;;;;6.00;4.03;;;13.70;99.90;;;;;;5033829;28;20109;-80
2023/06/28 05:28:08;;;;;;;4.90;3.95;;;13.70;99.90;;;;;;5032579;28;20021;-82
2023/06/28 05:30:34;;;;;;;6.55;3.83;;;13.60;99.90;;;;;;5033259;28;20050;-81
2023/06/28 05:33:02;;;;;;;8.65;3.97;;;13.80;99.90;;;;;;5033768;28;20100;-82
2023/06/28 05:35:32;;;;;;;9.32;4.00;;;13.70;99.90;;;;;;5032429;28;20104;-80
2023/06/28 05:38:02;;;;;;;7.63;3.53;;;13.70;99.90;;;;;;5032432;28;20021;-82
2023/06/28 05:40:28;;;;;;;3.45;3.13;;;13.70;99.90;;;;;;5032156;28;20037;-80
2023/06/28 05:42:55;;;;;;;5.43;3.40;;;13.70;99.90;;;;;;5032162;28;20037;-80
2023/06/28 05:45:24;;;;;;;4.75;3.33;;;13.70;99.90;;;;;;5032390;28;20055;-80
2023/06/28 05:47:50;;;;;;;16.33;4.10;;;13.70;99.90;;;;;;5032291;28;20033;-80
2023/06/28 05:50:17;;;;;;;4.13;3.35;;;13.70;99.90;;;;;;5032227;28;20021;-80
2023/06/28 05:52:45;;;;;;;5.47;3.70;;;13.80;99.90;;;;;;5033569;28;20112;-80
2023/06/28 05:55:11;;;;;;;7.78;3.53;;;13.90;99.90;;;;;;5032121;28;20018;-82
2023/06/28 05:57:37;;;;;;;4.30;2.75;;;13.90;99.90;;;;;;5032178;28;20048;-82
2023/06/28 06:00:08;;;;;;;4.38;3.20;;;13.90;99.90;;;;;;5033384;28;20025;-80
2023/06/28 06:02:33;;;;;;;3.28;2.97;;;13.90;99.90;;;;;;5033224;28;20041;-82
2023/06/28 06:05:00;;;;;;;4.85;3.03;;;14.10;99.90;;;;;;5033211;28;20021;-80
2023/06/28 06:07:26;;;;;;;4.95;3.63;;;14.10;99.90;;;;;;5033079;28;20024;-80
2023/06/28 06:09:54;;;;;;;5.25;3.33;;;14.20;99.90;;;;;;5032053;28;20033;-82
2023/06/28 06:12:20;;;;;;;5.90;3.20;;;14.20;99.90;;;;;;5031991;28;20033;-82
2023/06/28 06:14:47;;;;;;;6.45;3.95;;;14.30;99.90;;;;;;5031844;28;20151;-81
2023/06/28 06:17:13;;;;;;;4.93;3.28;;;14.30;99.90;;;;;;5031864;28;20484;-82
2023/06/28 06:19:38;;;;;;;4.05;3.20;;;14.30;99.90;;;;;;5033070;28;20104;-80
2023/06/28 06:22:05;;;;;;;6.85;3.80;;;14.40;99.90;;;;;;5033523;28;20032;-80
2023/06/28 06:24:30;;;;;;;4.15;2.95;;;14.30;99.90;;;;;;5031650;28;20037;-80
2023/06/28 06:26:56;;;;;;;4.82;3.42;;;14.40;99.90;;;;;;5031605;28;20057;-80
2023/06/28 06:29:21;;;;;;;5.15;3.65;;;14.60;99.90;;;;;;5030430;28;20060;-82
2023/06/28 06:31:47;;;;;;;5.63;3.65;;;14.70;99.90;;;;;;5032768;28;20029;-81
2023/06/28 06:34:13;;;;;;;5.65;3.67;;;14.90;99.90;;;;;;5031592;28;20017;-80
2023/06/28 06:36:38;;;;;;;6.28;3.75;;;15.10;99.90;;;;;;5031771;28;20037;-80
2023/06/28 06:39:04;;;;;;;5.18;3.72;;;15.40;99.90;;;;;;5031454;28;20075;-81
2023/06/28 06:41:29;;;;;;;3.83;2.72;;;15.40;99.90;;;;;;5032612;28;20517;-81
2023/06/28 06:43:55;;;;;;;5.45;3.47;;;15.30;99.90;;;;;;5031567;28;20368;-82
2023/06/28 06:46:21;;;;;;;6.80;3.50;;;15.50;99.90;;;;;;5031763;28;20049;-81
2023/06/28 06:48:47;;;;;;;5.80;3.22;;;15.40;99.90;;;;;;5031246;28;20064;-80
2023/06/28 06:51:14;;;;;;;4.10;2.95;;;15.50;99.90;;;;;;5031259;28;20014;-82
2023/06/28 06:53:39;;;;;;;3.88;2.80;;;15.60;99.90;;;;;;5032555;28;20031;-81
2023/06/28 06:56:05;;;;;;;6.65;2.92;;;15.90;99.90;;;;;;5031093;28;20028;-81
2023/06/28 06:58:31;;;;;;;3.88;3.05;;;16.00;99.90;;;;;;5031666;28;20025;-81
2023/06/28 07:00:56;;;;;;;9.32;2.88;;;16.20;99.90;;;;;;5032394;28;20382;-82
2023/06/28 07:03:22;;;;;;;4.22;2.90;;;16.50;99.90;;;;;;5030988;28;20036;-82
2023/06/28 07:05:48;;;;;;;4.80;2.55;;;16.50;98.10;;;;;;5030952;28;20039;-82
2023/06/28 07:08:13;;;;;;;4.72;2.88;;;16.70;98.10;;;;;;5032253;28;20052;-81
2023/06/28 07:10:39;;;;;;;4.68;2.15;;;17.00;98.80;;;;;;5032306;28;20588;-81
2023/06/28 07:13:05;;;;;;;2.95;2.33;;;17.20;92.20;;;;;;5032305;28;20477;-81
2023/06/28 07:15:30;;;;;;;3.53;1.85;;;17.10;87.90;;;;;;5030858;28;20021;-81
2023/06/28 07:17:56;;;;;;;5.38;2.28;;;17.00;87.20;;;;;;5031265;28;20033;-81
2023/06/28 07:20:21;;;;;;;7.75;2.40;;;17.10;88.00;;;;;;5050760;28;20024;-81
2023/06/28 07:22:47;;;;;;;2.88;2.17;;;17.10;88.80;;;;;;5051888;28;20078;-83
2023/06/28 07:25:13;;;;;;;3.80;2.22;;;17.30;85.70;;;;;;5052864;28;20466;-82
2023/06/28 07:27:39;;;;;;;2.55;2.22;;;17.20;85.40;;;;;;5051960;28;20021;-82
2023/06/28 07:30:07;;;;;;;3.88;1.98;;;16.90;84.30;;;;;;5051885;28;20109;-82
2023/06/28 07:32:33;;;;;;;2.65;1.95;;;16.90;87.80;;;;;;5050564;28;20507;-81
2023/06/28 07:35:00;;;;;;;4.00;2.60;;;17.00;87.70;;;;;;5051810;28;20526;-81
2023/06/28 07:37:25;;;;;;;7.55;2.40;;;17.20;85.70;;;;;;5051939;28;20021;-81
2023/06/28 07:39:51;;;;;;;4.50;2.25;;;17.20;83.20;;;;;;5051071;28;20047;-82
2023/06/28 07:42:18;;;;;;;3.30;2.20;;;17.20;84.50;;;;;;5051627;28;20025;-82
2023/06/28 07:44:44;;;;;;;3.60;2.35;;;17.40;83.60;;;;;;5051625;28;20041;-82
2023/06/28 07:47:09;;;;;;;8.13;2.33;;;17.50;82.50;;;;;;5051661;28;20044;-81
2023/06/28 07:49:35;;;;;;;3.60;2.35;;;17.40;79.80;;;;;;5051189;28;20501;-83
2023/06/28 07:52:01;;;;;;;4.28;2.22;;;17.40;80.90;;;;;;5051582;28;20017;-82
2023/06/28 07:54:27;;;;;;;3.03;1.90;;;17.50;79.90;;;;;;5050127;28;20021;-82
2023/06/28 07:56:52;;;;;;;3.78;2.13;;;17.50;81.40;;;;;;5051430;28;20029;-81
2023/06/28 07:59:20;;;;;;;4.15;2.30;;;17.60;82.20;;;;;;5050136;28;20021;-81
2023/06/28 08:01:46;;;;;;;4.20;2.17;;;17.70;81.10;;;;;;5050034;28;20025;-83
2023/06/28 08:04:15;;;;;;;6.50;2.40;;;17.40;80.70;;;;;;5050045;28;20063;-82
2023/06/28 08:06:41;;;;;;;4.75;2.13;;;17.30;81.40;;;;;;5049992;28;20013;-82
2023/06/28 08:09:07;;;;;;;5.88;2.17;;;17.30;83.10;;;;;;5050020;28;20351;-81
2023/06/28 08:11:33;;;;;;;2.88;1.98;;;17.30;82.70;;;;;;5049745;28;20078;-82
2023/06/28 08:13:59;;;;;;;5.90;2.08;;;17.60;81.60;;;;;;5049822;28;20033;-81
2023/06/28 08:16:24;;;;;;;1.60;1.50;;;17.90;82.40;;;;;;5051432;28;20036;-82
2023/06/28 08:18:50;;;;;;;1.95;1.70;;;18.20;78.70;;;;;;5050060;28;20017;-82
2023/06/28 08:21:15;;;;;;;4.88;1.70;;;18.70;79.70;;;;;;5049686;28;20021;-82
2023/06/28 08:23:41;;;;;;;2.72;1.65;;;18.70;75.70;;;;;;5050890;28;20037;-82
2023/06/28 08:26:06;;;;;;;3.33;1.80;;;18.40;68.00;;;;;;5049870;28;20029;-82
2023/06/28 08:28:32;;;;;;;2.90;1.77;;;18.10;68.30;;;;;;5050074;28;20038;-81
2023/06/28 08:30:58;;;;;;;4.03;1.50;;;17.90;70.00;;;;;;5050903;28;20032;-81
2023/06/28 08:33:24;;;;;;;3.13;1.35;;;17.70;70.10;;;;;;5049642;28;20029;-81
2023/06/28 08:35:50;;;;;;;4.18;1.55;;;17.60;71.40;;;;;;5049500;28;20028;-81
2023/06/28 08:38:16;;;;;;;1.42;1.25;;;17.60;71.30;;;;;;5051141;28;20031;-82
2023/06/28 08:40:41;;;;;;;2.58;1.67;;;17.60;73.20;;;;;;5050835;28;20037;-82
2023/06/28 08:43:11;;;;;;;5.07;1.88;;;17.30;72.40;;;;;;5050661;28;20043;-82
2023/06/28 08:45:37;;;;;;;5.57;2.00;;;16.80;75.60;;;;;;5049385;28;20478;-82
2023/06/28 08:48:04;;;;;;;3.30;1.77;;;16.30;83.20;;;;;;5049420;28;20074;-81
2023/06/28 08:50:30;;;;;;;6.63;2.20;;;16.00;95.30;;;;;;5049238;28;20093;-81
2023/06/28 08:52:56;;;;;;;4.32;2.63;;;15.80;99.10;;;;;;5050024;28;20418;-81
2023/06/28 08:55:23;;;;;;;4.90;2.40;;;15.70;99.90;;;;;;5049357;28;20051;-81
2023/06/28 08:57:49;;;;;;;4.10;2.20;;;15.70;99.90;;;;;;5050518;28;20029;-81
2023/06/28 09:00:15;;;;;;;5.85;2.40;;;15.80;99.90;;;;;;5050589;28;20048;-81
2023/06/28 09:02:42;;;;;;;4.38;2.08;;;16.10;99.90;;;;;;5049220;28;20520;-81
2023/06/28 09:05:09;;;;;;;3.42;2.10;;;16.30;99.90;;;;;;5049186;28;20028;-81
2023/06/28 09:07:40;;;;;;;3.10;2.25;;;16.40;99.90;;;;;;5049324;28;20382;-81
2023/06/28 09:10:10;;;;;;;3.90;2.17;;;16.90;96.50;;;;;;5049510;28;20029;-81
2023/06/28 09:12:36;;;;;;;2.72;1.77;;;17.40;95.10;;;;;;5050555;28;20381;-81
2023/06/28 09:15:03;;;;;;;3.67;1.65;;;17.80;84.50;;;;;;5049209;28;20021;-81
2023/06/28 09:17:29;;;;;;;3.13;1.60;;;18.40;80.10;;;;;;5049318;28;20025;-82
2023/06/28 09:20:16;;;;;;;3.45;1.75;;;18.70;76.20;;;;;;5049083;28;20513;-82
2023/06/28 09:22:41;;;;;;;4.47;1.25;;;18.50;74.10;;;;;;5049085;28;20115;-82
2023/06/28 09:25:08;;;;;;;1.70;1.20;;;17.90;72.30;;;;;;5048951;28;20158;-82
2023/06/28 09:27:33;;;;;;;13.20;1.95;;;17.40;75.30;;;;;;5050509;28;20510;-82
2023/06/28 09:29:59;;;;;;;3.70;1.85;;;17.00;78.70;;;;;;5050239;28;20028;-81
2023/06/28 09:32:39;;;;;;;1.70;1.58;;;16.90;83.90;;;;;;5050169;28;20021;-81
2023/06/28 09:35:11;;;;;;;4.82;1.80;;;16.80;88.30;;;;;;5050081;28;20023;-81
2023/06/28 09:37:40;;;;;;;2.87;1.90;;;16.70;91.00;;;;;;5048947;28;20173;-81
2023/06/28 09:40:06;;;;;;;5.00;2.20;;;16.80;95.90;;;;;;5048674;28;20021;-81
2023/06/28 09:42:41;;;;;;;3.70;1.63;;;16.90;97.50;;;;;;5050184;28;20097;-81
2023/06/28 09:45:07;;;;;;;2.40;1.95;;;16.90;95.90;;;;;;5050015;28;20028;-81
2023/06/28 09:47:33;;;;;;;3.65;1.73;;;17.10;94.70;;;;;;5048714;28;20470;-81
2023/06/28 09:50:01;;;;;;;3.38;1.80;;;17.50;94.20;;;;;;5048621;28;20028;-81
2023/06/28 09:52:27;;;;;;;5.68;1.40;;;18.00;85.80;;;;;;5048610;28;20021;-82
2023/06/28 09:54:56;;;;;;;2.33;1.20;;;18.20;70.70;;;;;;5048680;28;20382;-81
2023/06/28 09:57:23;;;;;;;2.05;1.50;;;18.20;63.90;;;;;;5049898;28;20013;-81
2023/06/28 09:59:52;;;;;;;4.20;1.77;;;18.40;65.10;;;;;;5048541;28;20021;-81
2023/06/28 10:02:22;;;;;;;2.72;1.25;;;18.50;64.80;;;;;;5049800;28;20455;-82
2023/06/28 10:04:48;;;;;;;2.40;1.25;;;18.50;65.50;;;;;;5051960;28;20025;-82
2023/06/28 10:07:15;;;;;;;1.95;1.30;;;18.70;64.90;;;;;;5051983;28;20025;-81
2023/06/28 10:09:41;;;;;;;4.32;1.50;;;18.90;65.90;;;;;;5051869;28;20120;-82
2023/06/28 10:12:20;;;;;;;4.28;1.77;;;19.00;64.10;;;;;;5051663;28;20530;-82
2023/06/28 10:15:01;;;;;;;2.28;1.33;;;19.20;65.70;;;;;;5052009;28;20025;-82
2023/06/28 10:17:31;;;;;;;2.95;1.65;;;19.10;59.90;;;;;;5053346;28;20021;-82
2023/06/28 10:19:58;;;;;;;3.45;1.40;;;18.80;58.70;;;;;;5052988;28;20355;-82
2023/06/28 10:22:24;;;;;;;4.72;1.48;;;18.70;59.10;;;;;;5052874;28;20069;-82
2023/06/28 10:24:51;;;;;;;1.88;1.30;;;19.10;58.40;;;;;;5051585;28;20021;-82
2023/06/28 10:27:17;;;;;;;2.10;1.77;;;19.50;58.90;;;;;;5051686;28;20017;-82
2023/06/28 10:29:46;;;;;;;4.70;2.10;;;19.40;58.60;;;;;;5051640;28;20017;-82
2023/06/28 10:32:11;;;;;;;3.70;1.70;;;19.10;61.20;;;;;;5051522;28;20017;-82
2023/06/28 10:34:38;;;;;;;2.65;2.08;;;18.60;62.50;;;;;;5052746;28;20146;-82
2023/06/28 10:37:04;;;;;;;2.92;2.03;;;18.40;63.60;;;;;;5051338;28;20102;-82
2023/06/28 10:39:34;;;;;;;3.05;1.75;;;18.40;63.70;;;;;;5052855;28;20021;-82
2023/06/28 10:42:00;;;;;;;6.00;1.65;;;18.60;64.80;;;;;;5051542;28;20068;-81
2023/06/28 10:44:26;;;;;;;3.88;1.75;;;18.50;62.50;;;;;;5051254;28;20470;-81
2023/06/28 10:47:11;;;;;;;2.42;1.73;;;18.60;63.90;;;;;;5052583;28;20025;-81
2023/06/28 10:49:39;;;;;;;3.70;1.58;;;19.10;63.30;;;;;;5051421;28;20021;-82
2023/06/28 10:52:13;;;;;;;3.53;1.52;;;19.10;60.10;;;;;;5051157;28;20056;-82
2023/06/28 10:54:38;;;;;;;4.10;1.85;;;19.10;61.10;;;;;;5051224;28;20036;-82
2023/06/28 10:57:11;;;;;;;3.40;1.50;;;19.10;60.90;;;;;;5052413;28;20025;-81
2023/06/28 10:59:41;;;;;;;4.05;1.77;;;19.30;59.90;;;;;;5051182;28;20131;-81
2023/06/28 11:02:07;;;;;;;3.58;2.00;;;19.30;59.20;;;;;;5050762;28;20385;-82
2023/06/28 11:04:33;;;;;;;2.25;1.75;;;19.60;59.60;;;;;;5052245;28;20033;-81
2023/06/28 11:07:07;;;;;;;3.70;1.50;;;20.00;60.40;;;;;;5052084;28;20035;-81
2023/06/28 11:09:34;;;;;;;2.15;1.85;;;20.10;58.20;;;;;;5052143;28;20439;-82
2023/06/28 11:12:00;;;;;;;2.45;1.98;;;19.90;58.60;;;;;;5050728;28;20023;-82
2023/06/28 11:14:27;;;;;;;4.85;1.50;;;20.00;60.00;;;;;;5051805;28;20017;-81
2023/06/28 11:17:02;;;;;;;5.80;1.90;;;19.90;59.90;;;;;;5052138;28;20466;-82
2023/06/28 11:19:28;;;;;;;6.75;2.78;;;19.70;59.90;;;;;;5051037;28;20017;-82
2023/06/28 11:21:58;;;;;;;3.38;1.92;;;19.40;60.40;;;;;;5050736;28;20488;-82
2023/06/28 11:24:37;;;;;;;8.38;2.53;;;19.10;61.60;;;;;;5051936;28;20115;-81
2023/06/28 11:27:23;;;;;;;6.43;1.85;;;18.90;61.90;;;;;;5051999;28;20027;-81
2023/06/28 11:30:00;;;;;;;5.13;1.80;;;19.00;63.50;;;;;;5050345;28;20033;-81
2023/06/28 11:32:31;;;;;;;5.15;1.80;;;18.90;61.70;;;;;;5050539;28;20390;-82
2023/06/28 11:34:58;;;;;;;3.33;1.80;;;18.80;61.90;;;;;;5050596;28;20028;-81
2023/06/28 11:37:24;;;;;;;2.65;1.80;;;18.90;62.10;;;;;;5051718;28;20478;-81
2023/06/28 11:39:50;;;;;;;3.85;1.90;;;19.00;61.20;;;;;;5050190;28;20028;-81
2023/06/28 11:42:18;;;;;;;2.03;1.70;;;19.30;61.30;;;;;;5051840;28;20025;-81
2023/06/28 11:44:50;;;;;;;6.93;2.13;;;19.70;60.00;;;;;;5050381;28;20419;-81
2023/06/28 11:47:18;;;;;;;1.98;1.45;;;20.20;59.30;;;;;;5051668;28;20025;-81
2023/06/28 11:49:46;;;;;;;4.82;1.85;;;20.30;58.40;;;;;;5051633;28;20033;-82
2023/06/28 11:52:11;;;;;;;3.05;1.67;;;20.50;59.00;;;;;;5051507;28;20498;-82
2023/06/28 11:54:37;;;;;;;3.88;1.45;;;20.30;56.70;;;;;;5050311;28;20021;-82
2023/06/28 11:57:03;;;;;;;4.20;1.80;;;20.20;57.20;;;;;;5050207;28;20544;-81
2023/06/28 11:59:31;;;;;;;4.93;1.33;;;19.90;57.10;;;;;;5050216;28;20021;-81
2023/06/28 12:02:07;;;;;;;8.02;1.98;;;19.80;57.20;;;;;;5051386;28;20060;-81
2023/06/28 12:04:36;;;;;;;2.42;1.20;;;19.50;57.30;;;;;;5051308;28;20119;-81
2023/06/28 12:07:06;;;;;;;4.07;1.92;;;19.50;55.10;;;;;;5050152;28;20378;-81
2023/06/28 12:09:34;;;;;;;1.63;1.52;;;19.30;55.00;;;;;;5049964;28;20036;-81
2023/06/28 12:12:02;;;;;;;2.25;1.42;;;19.20;54.80;;;;;;5051258;28;20028;-81
2023/06/28 12:14:30;;;;;;;2.55;1.30;;;19.00;55.30;;;;;;5049904;28;20082;-81
2023/06/28 12:16:57;;;;;;;2.95;1.50;;;19.00;56.30;;;;;;5051177;28;20033;-81
2023/06/28 12:19:33;;;;;;;2.40;1.20;;;18.90;56.70;;;;;;5051214;28;20042;-81
2023/06/28 12:22:06;;;;;;;4.93;2.72;;;19.00;56.40;;;;;;5051297;28;20051;-81
2023/06/28 12:24:36;;;;;;;3.80;1.50;;;19.40;58.50;;;;;;5051173;28;20112;-81
2023/06/28 12:27:05;;;;;;;2.53;1.20;;;19.70;57.50;;;;;;5048508;28;20036;-82
2023/06/28 12:29:32;;;;;;;3.20;1.50;;;19.80;56.30;;;;;;5051011;28;20025;-81
2023/06/28 12:32:04;;;;;;;2.67;1.42;;;20.10;57.10;;;;;;5049632;28;20086;-81
2023/06/28 12:34:34;;;;;;;3.25;1.98;;;20.30;56.70;;;;;;5050911;28;20021;-82
2023/06/28 12:37:09;;;;;;;5.35;1.85;;;20.10;55.90;;;;;;5049704;28;20021;-81
2023/06/28 12:39:36;;;;;;;3.03;1.77;;;19.80;56.40;;;;;;5050841;28;20064;-81
2023/06/28 12:42:21;;;;;;;6.18;1.75;;;19.40;57.40;;;;;;5049644;28;20143;-81
2023/06/28 12:44:50;;;;;;;5.10;1.83;;;19.50;59.20;;;;;;5049481;28;20043;-82
2023/06/28 12:47:20;;;;;;;4.70;1.80;;;19.70;58.80;;;;;;5049495;28;20029;-81